createdAt,value
2022-11-18T00:01:11.341Z,95.38
2022-11-18T00:02:11.365Z,95.38
2022-11-18T00:03:11.282Z,95.48
2022-11-18T00:04:11.267Z,95.58
2022-11-18T00:05:11.258Z,95.58
2022-11-18T00:06:11.242Z,95.48
2022-11-18T00:07:11.315Z,95.69
2022-11-18T00:08:11.217Z,95.69
2022-11-18T00:09:11.205Z,95.48
2022-11-18T00:10:11.191Z,95.28
2022-11-18T00:12:11.165Z,95.22
2022-11-18T00:13:11.153Z,95.83
2022-11-18T00:14:11.139Z,96.70
2022-11-18T00:15:11.154Z,97.01
2022-11-18T00:16:11.115Z,97.11
2022-11-18T00:17:11.102Z,97.17
2022-11-18T00:18:11.088Z,97.07
2022-11-18T00:19:11.079Z,96.96
2022-11-18T00:20:11.065Z,96.96
2022-11-18T00:21:11.059Z,96.55
2022-11-18T00:23:11.027Z,96.51
2022-11-18T00:24:11.016Z,96.20
2022-11-18T00:25:11.003Z,96.30
2022-11-18T00:26:10.990Z,96.20
2022-11-18T00:27:10.977Z,96.00
2022-11-18T00:28:10.962Z,95.79
2022-11-18T00:29:10.961Z,95.85
2022-11-18T00:30:10.937Z,95.54
2022-11-18T00:31:10.956Z,95.13
2022-11-18T00:32:10.912Z,94.92
2022-11-18T00:34:10.890Z,94.83
2022-11-18T00:35:10.883Z,94.66
2022-11-18T00:36:10.865Z,94.66
2022-11-18T00:37:10.853Z,94.72
2022-11-18T00:38:10.842Z,94.87
2022-11-18T00:39:10.828Z,95.17
2022-11-18T00:40:10.821Z,95.28
2022-11-18T00:41:10.802Z,95.38
2022-11-18T00:42:10.790Z,95.48
2022-11-18T00:43:10.777Z,95.58
2022-11-18T00:45:10.752Z,95.28
2022-11-18T00:46:10.737Z,95.03
2022-11-18T00:47:10.815Z,95.13
2022-11-18T00:48:10.714Z,95.03
2022-11-18T00:49:10.702Z,94.92
2022-11-18T00:50:10.688Z,94.83
2022-11-18T00:51:10.679Z,94.83
2022-11-18T00:52:10.663Z,95.03
2022-11-18T00:53:10.653Z,95.03
2022-11-18T00:54:10.640Z,95.03
2022-11-18T00:56:10.613Z,94.83
2022-11-18T00:57:10.602Z,94.62
2022-11-18T00:58:10.588Z,94.87
2022-11-18T00:59:10.576Z,95.38
2022-11-18T01:00:10.565Z,95.89
2022-11-18T01:01:10.628Z,96.00
2022-11-18T01:02:10.538Z,96.20
2022-11-18T01:03:10.549Z,96.26
2022-11-18T01:04:10.515Z,96.26
2022-11-18T01:05:10.502Z,95.95
2022-11-18T01:07:10.546Z,95.23
2022-11-18T01:08:10.463Z,95.13
2022-11-18T01:09:10.452Z,94.92
2022-11-18T01:10:10.436Z,94.83
2022-11-18T01:11:10.425Z,94.72
2022-11-18T01:12:10.413Z,95.03
2022-11-18T01:13:10.402Z,94.92
2022-11-18T01:14:10.388Z,95.34
2022-11-18T01:15:10.381Z,95.38
2022-11-18T01:16:10.362Z,95.54
2022-11-18T01:18:10.337Z,95.48
2022-11-18T01:19:10.356Z,95.48
2022-11-18T01:20:10.310Z,95.38
2022-11-18T01:21:10.301Z,95.73
2022-11-18T01:22:10.287Z,96.35
2022-11-18T01:23:10.277Z,96.76
2022-11-18T01:24:10.261Z,96.61
2022-11-18T01:25:10.249Z,96.61
2022-11-18T01:26:10.239Z,96.61
2022-11-18T01:27:10.224Z,96.41
2022-11-18T01:29:10.202Z,96.71
2022-11-18T01:30:10.184Z,96.71
2022-11-18T01:31:10.175Z,96.41
2022-11-18T01:32:24.399Z,96.20
2022-11-18T01:33:12.148Z,96.00
2022-11-18T01:34:10.135Z,96.00
2022-11-18T01:35:10.153Z,96.09
2022-11-18T01:36:10.110Z,96.30
2022-11-18T01:37:10.101Z,96.66
2022-11-18T01:38:10.085Z,96.86
2022-11-18T01:40:10.060Z,97.02
2022-11-18T01:41:10.048Z,97.13
2022-11-18T01:42:10.038Z,97.13
2022-11-18T01:43:10.024Z,96.92
2022-11-18T01:44:10.009Z,96.82
2022-11-18T01:45:10.341Z,96.51
2022-11-18T01:46:09.983Z,96.09
2022-11-18T01:47:09.973Z,96.09
2022-11-18T01:48:09.959Z,96.00
2022-11-18T01:49:09.948Z,95.89
2022-11-18T01:51:09.947Z,96.20
2022-11-18T01:52:09.907Z,96.30
2022-11-18T01:53:09.896Z,96.30
2022-11-18T01:54:09.882Z,96.30
2022-11-18T01:55:09.874Z,96.41
2022-11-18T01:56:09.857Z,96.41
2022-11-18T01:57:09.847Z,96.51
2022-11-18T01:58:09.835Z,96.20
2022-11-18T01:59:09.824Z,96.20
2022-11-18T02:00:09.810Z,95.79
2022-11-18T02:02:09.783Z,96.35
2022-11-18T02:03:09.777Z,96.45
2022-11-18T02:04:09.757Z,96.55
2022-11-18T02:05:09.747Z,96.35
2022-11-18T02:06:09.733Z,96.29
2022-11-18T02:07:09.785Z,97.01
2022-11-18T02:08:09.707Z,96.70
2022-11-18T02:09:09.696Z,97.05
2022-11-18T02:10:09.682Z,97.36
2022-11-18T02:11:09.681Z,97.67
2022-11-18T02:13:09.645Z,97.88
2022-11-18T02:14:09.631Z,97.77
2022-11-18T02:15:09.620Z,97.88
2022-11-18T02:16:09.613Z,97.88
2022-11-18T02:17:09.595Z,97.67
2022-11-18T02:18:09.580Z,97.26
2022-11-18T02:19:09.572Z,97.57
2022-11-18T02:20:09.553Z,97.82
2022-11-18T02:21:09.550Z,98.33
2022-11-18T02:22:09.528Z,98.74
2022-11-18T02:24:09.502Z,99.31
2022-11-18T02:25:09.490Z,99.51
2022-11-18T02:26:09.476Z,99.71
2022-11-18T02:27:09.465Z,99.82
2022-11-18T02:28:09.450Z,99.99
2022-11-18T02:29:09.438Z,99.99
2022-11-18T02:30:09.424Z,99.99
2022-11-18T02:31:09.413Z,99.99
2022-11-18T02:32:09.398Z,99.99
2022-11-18T02:33:09.395Z,99.99
2022-11-18T02:35:09.362Z,99.98
2022-11-18T02:36:09.348Z,99.77
2022-11-18T02:37:09.337Z,99.46
2022-11-18T02:38:09.321Z,99.05
2022-11-18T02:39:09.336Z,99.15
2022-11-18T02:40:09.295Z,99.15
2022-11-18T02:41:09.284Z,99.15
2022-11-18T02:42:09.270Z,99.15
2022-11-18T02:43:09.262Z,98.95
2022-11-18T02:44:09.244Z,98.54
2022-11-18T02:46:09.222Z,98.64
2022-11-18T02:47:09.205Z,98.54
2022-11-18T02:48:09.200Z,98.64
2022-11-18T02:49:09.178Z,97.82
2022-11-18T02:50:09.171Z,97.82
2022-11-18T02:51:09.153Z,98.48
2022-11-18T02:52:09.142Z,98.69
2022-11-18T02:53:09.130Z,98.99
2022-11-18T02:54:09.116Z,98.85
2022-11-18T02:55:09.129Z,98.85
2022-11-18T02:57:09.079Z,98.74
2022-11-18T02:58:09.065Z,98.74
2022-11-18T02:59:09.050Z,98.60
2022-11-18T03:00:09.038Z,98.13
2022-11-18T03:01:09.070Z,98.54
2022-11-18T03:02:09.013Z,98.99
2022-11-18T03:03:08.998Z,99.61
2022-11-18T03:04:08.987Z,99.99
2022-11-18T03:05:08.972Z,99.99
2022-11-18T03:06:08.960Z,99.99
2022-11-18T03:08:08.936Z,99.99
2022-11-18T03:09:08.919Z,99.99
2022-11-18T03:10:08.908Z,99.99
2022-11-18T03:11:08.916Z,99.99
2022-11-18T03:12:08.884Z,99.77
2022-11-18T03:13:08.869Z,99.36
2022-11-18T03:14:08.857Z,98.95
2022-11-18T03:15:08.842Z,99.40
2022-11-18T03:16:08.832Z,99.82
2022-11-18T03:17:08.815Z,99.87
2022-11-18T03:19:08.793Z,99.87
2022-11-18T03:20:08.780Z,99.77
2022-11-18T03:21:08.765Z,99.51
2022-11-18T03:22:08.753Z,99.61
2022-11-18T03:23:08.744Z,99.77
2022-11-18T03:24:08.727Z,99.67
2022-11-18T03:25:08.714Z,99.57
2022-11-18T03:26:08.701Z,99.36
2022-11-18T03:27:08.715Z,99.15
2022-11-18T03:28:08.676Z,99.05
2022-11-18T03:30:08.651Z,98.95
2022-11-18T03:31:08.637Z,99.05
2022-11-18T03:32:08.627Z,98.95
2022-11-18T03:33:08.612Z,98.85
2022-11-18T03:34:08.601Z,98.85
2022-11-18T03:35:08.590Z,98.85
2022-11-18T03:36:08.576Z,98.85
2022-11-18T03:37:10.631Z,98.80
2022-11-18T03:38:08.550Z,98.60
2022-11-18T03:39:08.534Z,98.60
2022-11-18T03:41:08.510Z,98.64
2022-11-18T03:42:08.500Z,98.74
2022-11-18T03:43:08.572Z,98.60
2022-11-18T03:44:08.475Z,98.49
2022-11-18T03:45:08.461Z,98.54
2022-11-18T03:46:08.450Z,98.54
2022-11-18T03:47:08.439Z,98.64
2022-11-18T03:48:08.424Z,98.74
2022-11-18T03:49:08.415Z,98.95
2022-11-18T03:50:08.399Z,98.95
2022-11-18T03:52:08.372Z,98.85
2022-11-18T03:53:08.359Z,99.05
2022-11-18T03:54:08.346Z,99.11
2022-11-18T03:55:08.332Z,99.01
2022-11-18T03:56:12.750Z,99.01
2022-11-18T03:57:08.306Z,98.80
2022-11-18T03:58:08.295Z,98.69
2022-11-18T03:59:08.306Z,98.60
2022-11-18T04:00:08.268Z,98.49
2022-11-18T04:01:08.287Z,98.49
2022-11-18T04:03:08.227Z,98.29
2022-11-18T04:04:08.217Z,98.08
2022-11-18T04:05:08.202Z,97.98
2022-11-18T04:06:08.191Z,97.88
2022-11-18T04:07:08.212Z,98.18
2022-11-18T04:08:08.166Z,98.33
2022-11-18T04:09:08.150Z,98.43
2022-11-18T04:10:08.139Z,98.43
2022-11-18T04:11:08.125Z,98.39
2022-11-18T04:12:08.114Z,98.39
2022-11-18T04:14:08.088Z,98.02
2022-11-18T04:15:08.099Z,98.54
2022-11-18T04:16:08.062Z,99.26
2022-11-18T04:17:08.047Z,99.26
2022-11-18T04:18:08.036Z,99.15
2022-11-18T04:19:08.025Z,99.15
2022-11-18T04:20:08.010Z,99.21
2022-11-18T04:21:07.996Z,99.21
2022-11-18T04:22:07.984Z,99.11
2022-11-18T04:23:07.970Z,99.11
2022-11-18T04:25:07.944Z,98.60
2022-11-18T04:26:07.932Z,98.80
2022-11-18T04:27:07.918Z,98.69
2022-11-18T04:28:07.908Z,98.60
2022-11-18T04:29:07.893Z,98.49
2022-11-18T04:30:07.883Z,98.60
2022-11-18T04:31:07.893Z,98.55
2022-11-18T04:32:07.858Z,98.55
2022-11-18T04:33:07.840Z,98.24
2022-11-18T04:34:07.834Z,98.24
2022-11-18T04:36:07.804Z,98.14
2022-11-18T04:37:07.789Z,98.14
2022-11-18T04:38:07.779Z,98.14
2022-11-18T04:39:07.764Z,97.72
2022-11-18T04:40:07.753Z,97.83
2022-11-18T04:41:07.737Z,97.93
2022-11-18T04:42:07.726Z,97.42
2022-11-18T04:43:07.711Z,97.72
2022-11-18T04:44:07.703Z,97.68
2022-11-18T04:45:07.685Z,97.58
2022-11-18T04:47:07.686Z,96.70
2022-11-18T04:48:07.648Z,97.42
2022-11-18T04:49:07.633Z,97.67
2022-11-18T04:50:07.627Z,98.18
2022-11-18T04:51:07.609Z,98.69
2022-11-18T04:52:07.603Z,98.60
2022-11-18T04:53:07.583Z,98.29
2022-11-18T04:54:07.572Z,98.39
2022-11-18T04:55:07.557Z,98.60
2022-11-18T04:56:07.549Z,98.29
2022-11-18T04:58:07.520Z,98.49
2022-11-18T04:59:07.506Z,98.69
2022-11-18T05:00:07.496Z,98.49
2022-11-18T05:01:07.526Z,97.98
2022-11-18T05:02:07.467Z,98.49
2022-11-18T05:03:07.479Z,98.60
2022-11-18T05:04:07.442Z,98.69
2022-11-18T05:05:07.428Z,98.80
2022-11-18T05:06:07.417Z,98.29
2022-11-18T05:07:07.479Z,98.39
2022-11-18T05:09:07.379Z,98.29
2022-11-18T05:10:07.367Z,98.18
2022-11-18T05:11:07.351Z,98.39
2022-11-18T05:12:07.340Z,98.29
2022-11-18T05:13:07.327Z,98.08
2022-11-18T05:14:07.317Z,98.08
2022-11-18T05:15:07.302Z,98.39
2022-11-18T05:16:07.289Z,98.39
2022-11-18T05:17:07.273Z,98.39
2022-11-18T05:18:07.263Z,97.88
2022-11-18T05:20:07.236Z,98.29
2022-11-18T05:21:07.223Z,98.49
2022-11-18T05:22:07.211Z,98.39
2022-11-18T05:23:07.198Z,98.44
2022-11-18T05:24:07.185Z,98.34
2022-11-18T05:25:07.170Z,98.24
2022-11-18T05:26:07.160Z,97.93
2022-11-18T05:27:07.149Z,97.72
2022-11-18T05:28:07.134Z,97.72
2022-11-18T05:29:07.119Z,97.52
2022-11-18T05:31:07.093Z,97.21
2022-11-18T05:32:07.088Z,97.83
2022-11-18T05:33:07.067Z,97.63
2022-11-18T05:34:07.058Z,97.63
2022-11-18T05:35:07.069Z,97.52
2022-11-18T05:36:07.030Z,97.26
2022-11-18T05:37:07.015Z,97.67
2022-11-18T05:38:07.004Z,98.29
2022-11-18T05:39:06.990Z,98.49
2022-11-18T05:40:06.979Z,98.60
2022-11-18T05:42:06.954Z,98.44
2022-11-18T05:43:06.938Z,98.34
2022-11-18T05:44:06.928Z,98.14
2022-11-18T05:45:06.913Z,98.24
2022-11-18T05:46:06.902Z,98.09
2022-11-18T05:47:06.887Z,97.83
2022-11-18T05:48:06.874Z,97.72
2022-11-18T05:49:06.861Z,97.83
2022-11-18T05:50:06.851Z,98.08
2022-11-18T05:51:06.857Z,98.34
2022-11-18T05:53:06.811Z,98.34
2022-11-18T05:54:06.801Z,98.24
2022-11-18T05:55:06.787Z,98.24
2022-11-18T05:56:06.777Z,98.19
2022-11-18T05:57:06.760Z,97.89
2022-11-18T05:58:06.759Z,97.99
2022-11-18T05:59:06.735Z,97.47
2022-11-18T06:00:06.725Z,97.42
2022-11-18T06:01:06.723Z,97.68
2022-11-18T06:02:06.700Z,97.68
2022-11-18T06:04:06.677Z,97.38
2022-11-18T06:05:06.661Z,97.17
2022-11-18T06:06:06.648Z,97.17
2022-11-18T06:07:06.776Z,97.38
2022-11-18T06:08:06.627Z,97.68
2022-11-18T06:09:06.612Z,97.79
2022-11-18T06:10:06.602Z,97.94
2022-11-18T06:11:06.588Z,97.84
2022-11-18T06:12:06.576Z,97.33
2022-11-18T06:13:06.560Z,97.13
2022-11-18T06:15:06.535Z,96.71
2022-11-18T06:16:06.524Z,96.55
2022-11-18T06:17:06.512Z,96.66
2022-11-18T06:18:06.506Z,96.76
2022-11-18T06:19:06.485Z,96.92
2022-11-18T06:20:06.472Z,97.02
2022-11-18T06:21:06.460Z,97.13
2022-11-18T06:22:06.449Z,97.13
2022-11-18T06:23:06.457Z,97.02
2022-11-18T06:24:06.423Z,96.71
2022-11-18T06:26:06.399Z,96.71
2022-11-18T06:27:06.387Z,96.92
2022-11-18T06:28:06.372Z,97.02
2022-11-18T06:29:06.358Z,96.88
2022-11-18T06:30:06.346Z,97.08
2022-11-18T06:31:06.333Z,96.97
2022-11-18T06:32:06.322Z,95.54
2022-11-18T06:33:06.307Z,95.28
2022-11-18T06:34:06.301Z,95.28
2022-11-18T06:35:06.282Z,95.53
2022-11-18T06:37:06.258Z,97.11
2022-11-18T06:38:06.245Z,97.63
2022-11-18T06:39:06.265Z,98.04
2022-11-18T06:40:06.222Z,98.55
2022-11-18T06:41:06.207Z,98.76
2022-11-18T06:42:06.201Z,98.76
2022-11-18T06:43:06.181Z,98.76
2022-11-18T06:44:06.189Z,98.34
2022-11-18T06:45:06.329Z,98.51
2022-11-18T06:46:09.118Z,98.30
2022-11-18T06:48:06.137Z,98.40
2022-11-18T06:49:06.106Z,98.30
2022-11-18T06:50:06.096Z,98.09
2022-11-18T06:51:06.282Z,98.19
2022-11-18T06:52:06.068Z,97.99
2022-11-18T06:53:06.054Z,97.99
2022-11-18T06:54:10.513Z,98.09
2022-11-18T06:55:06.068Z,97.94
2022-11-18T06:56:06.019Z,97.84
2022-11-18T06:57:06.004Z,97.27
2022-11-18T06:59:05.979Z,97.79
2022-11-18T07:00:05.982Z,97.79
2022-11-18T07:01:06.003Z,97.99
2022-11-18T07:02:05.940Z,97.99
2022-11-18T07:03:05.928Z,97.89
2022-11-18T07:04:05.924Z,98.09
2022-11-18T07:05:05.903Z,98.30
2022-11-18T07:06:05.889Z,98.30
2022-11-18T07:07:05.934Z,98.30
2022-11-18T07:08:05.865Z,98.25
2022-11-18T07:10:05.839Z,98.05
2022-11-18T07:11:05.855Z,97.94
2022-11-18T07:12:05.816Z,98.00
2022-11-18T07:13:05.811Z,97.90
2022-11-18T07:14:05.788Z,97.69
2022-11-18T07:15:05.779Z,97.39
2022-11-18T07:16:05.764Z,97.18
2022-11-18T07:17:05.754Z,97.08
2022-11-18T07:18:05.739Z,96.56
2022-11-18T07:19:05.727Z,96.56
2022-11-18T07:21:05.703Z,96.41
2022-11-18T07:22:05.688Z,96.41
2022-11-18T07:23:05.677Z,96.45
2022-11-18T07:24:05.664Z,97.17
2022-11-18T07:25:05.650Z,97.17
2022-11-18T07:26:05.638Z,97.27
2022-11-18T07:27:05.668Z,97.47
2022-11-18T07:28:05.612Z,97.13
2022-11-18T07:29:05.603Z,97.17
2022-11-18T07:30:05.588Z,97.43
2022-11-18T07:32:05.563Z,97.22
2022-11-18T07:33:05.552Z,97.13
2022-11-18T07:34:05.538Z,97.43
2022-11-18T07:35:05.528Z,97.33
2022-11-18T07:36:05.512Z,97.33
2022-11-18T07:37:05.503Z,97.02
2022-11-18T07:38:05.485Z,96.88
2022-11-18T07:39:05.479Z,96.36
2022-11-18T07:40:05.464Z,96.16
2022-11-18T07:41:05.451Z,96.46
2022-11-18T07:43:05.452Z,95.95
2022-11-18T07:44:05.413Z,96.16
2022-11-18T07:45:05.402Z,96.01
2022-11-18T07:46:05.384Z,95.91
2022-11-18T07:47:05.375Z,95.80
2022-11-18T07:48:05.380Z,95.29
2022-11-18T07:49:05.347Z,94.98
2022-11-18T07:50:05.336Z,95.25
2022-11-18T07:51:05.322Z,94.94
2022-11-18T07:52:05.305Z,94.22
2022-11-18T07:54:05.283Z,93.81
2022-11-18T07:55:05.284Z,94.12
2022-11-18T07:56:05.252Z,94.32
2022-11-18T07:57:05.256Z,94.43
2022-11-18T07:58:05.226Z,94.43
2022-11-18T07:59:05.241Z,94.32
2022-11-18T08:00:05.200Z,94.22
2022-11-18T08:01:05.248Z,94.22
2022-11-18T08:02:05.227Z,94.43
2022-11-18T08:03:05.162Z,94.28
2022-11-18T08:05:05.232Z,93.92
2022-11-18T08:06:05.121Z,94.22
2022-11-18T08:07:05.194Z,94.78
2022-11-18T08:08:05.095Z,95.09
2022-11-18T08:09:05.095Z,94.68
2022-11-18T08:10:05.078Z,94.88
2022-11-18T08:11:05.057Z,95.39
2022-11-18T08:12:05.043Z,95.23
2022-11-18T08:13:05.033Z,95.75
2022-11-18T08:14:05.016Z,95.85
2022-11-18T08:16:04.990Z,96.05
2022-11-18T08:17:04.978Z,96.36
2022-11-18T08:18:08.444Z,96.46
2022-11-18T08:19:04.954Z,96.52
2022-11-18T08:20:04.937Z,96.52
2022-11-18T08:21:04.925Z,96.42
2022-11-18T08:22:04.910Z,96.21
2022-11-18T08:23:04.898Z,96.42
2022-11-18T08:24:04.884Z,96.01
2022-11-18T08:25:04.871Z,95.86
2022-11-18T08:27:04.844Z,95.76
2022-11-18T08:28:04.830Z,95.66
2022-11-18T08:29:04.818Z,95.35
2022-11-18T08:30:04.803Z,95.25
2022-11-18T08:31:04.821Z,95.45
2022-11-18T08:32:04.779Z,95.45
2022-11-18T08:33:04.765Z,95.20
2022-11-18T08:34:04.759Z,95.14
2022-11-18T08:35:10.642Z,95.14
2022-11-18T08:36:04.724Z,95.14
2022-11-18T08:38:04.698Z,95.25
2022-11-18T08:39:04.685Z,95.51
2022-11-18T08:40:04.700Z,95.41
2022-11-18T08:41:04.662Z,95.41
2022-11-18T08:42:04.642Z,95.51
2022-11-18T08:43:04.629Z,95.67
2022-11-18T08:44:04.616Z,95.57
2022-11-18T08:45:04.605Z,95.01
2022-11-18T08:46:04.588Z,94.81
2022-11-18T08:47:04.608Z,94.50
2022-11-18T08:49:04.550Z,94.40
2022-11-18T08:50:04.601Z,93.89
2022-11-18T08:51:04.530Z,93.99
2022-11-18T08:52:04.509Z,93.78
2022-11-18T08:53:04.496Z,94.29
2022-11-18T08:54:04.482Z,93.89
2022-11-18T08:55:04.472Z,93.99
2022-11-18T08:56:04.454Z,93.58
2022-11-18T08:57:04.448Z,93.68
2022-11-18T08:58:04.432Z,94.09
2022-11-18T09:00:04.403Z,93.52
2022-11-18T09:01:04.477Z,94.14
2022-11-18T09:02:04.452Z,94.44
2022-11-18T09:03:04.491Z,94.50
2022-11-18T09:04:04.350Z,94.65
2022-11-18T09:05:04.339Z,94.70
2022-11-18T09:06:04.327Z,94.50
2022-11-18T09:07:04.347Z,93.99
2022-11-18T09:08:04.301Z,94.09
2022-11-18T09:09:06.481Z,94.60
2022-11-18T09:11:04.264Z,94.92
2022-11-18T09:12:04.250Z,93.90
2022-11-18T09:13:33.349Z,92.73
2022-11-18T09:15:19.880Z,92.59
2022-11-18T09:16:06.195Z,91.83
2022-11-18T09:17:04.193Z,90.44
2022-11-18T09:18:04.170Z,89.94
2022-11-18T09:19:31.535Z,90.85
2022-11-18T09:21:04.135Z,89.94
2022-11-18T09:22:04.119Z,90.38
2022-11-18T09:23:04.107Z,91.20
2022-11-18T09:24:04.093Z,90.96
2022-11-18T09:25:04.084Z,90.81
2022-11-18T09:26:04.066Z,89.79
2022-11-18T09:27:04.057Z,90.10
2022-11-18T09:28:04.043Z,89.38
2022-11-18T09:29:04.031Z,89.69
2022-11-18T09:30:04.018Z,89.55
2022-11-18T09:32:03.993Z,88.15
2022-11-18T09:33:03.980Z,84.19
2022-11-18T09:34:03.965Z,85.81
2022-11-18T09:35:04.015Z,85.30
2022-11-18T09:36:03.939Z,85.20
2022-11-18T09:37:03.929Z,83.84
2022-11-18T09:38:03.915Z,83.23
2022-11-18T09:39:03.908Z,83.19
2022-11-18T09:40:03.893Z,83.19
2022-11-18T09:41:03.882Z,83.59
2022-11-18T09:43:03.853Z,85.20
2022-11-18T09:44:03.837Z,85.63
2022-11-18T09:45:06.272Z,85.46
2022-11-18T09:46:05.812Z,87.77
2022-11-18T09:47:03.799Z,88.07
2022-11-18T09:48:03.787Z,87.67
2022-11-18T09:49:03.805Z,86.40
2022-11-18T09:50:20.373Z,86.81
2022-11-18T09:51:03.770Z,87.26
2022-11-18T09:52:03.733Z,88.12
2022-11-18T09:54:03.705Z,88.93
2022-11-18T09:55:03.696Z,88.87
2022-11-18T09:56:03.695Z,89.69
2022-11-18T09:57:03.668Z,89.83
2022-11-18T09:58:03.656Z,90.61
2022-11-18T09:59:03.642Z,90.55
2022-11-18T10:00:03.626Z,90.71
2022-11-18T10:01:03.623Z,90.10
2022-11-18T10:02:03.730Z,89.59
2022-11-18T10:03:03.589Z,89.95
2022-11-18T10:05:03.561Z,83.58
2022-11-18T10:06:03.548Z,80.55
2022-11-18T10:07:03.691Z,74.81
2022-11-18T10:08:03.522Z,74.53
2022-11-18T10:09:03.512Z,71.73
2022-11-18T10:10:03.496Z,69.51
2022-11-18T10:11:03.486Z,69.48
2022-11-18T10:12:03.471Z,70.42
2022-11-18T10:13:03.460Z,70.99
2022-11-18T10:14:03.445Z,72.54
2022-11-18T10:16:03.421Z,76.36
2022-11-18T10:17:03.409Z,75.75
2022-11-18T10:18:03.398Z,78.32
2022-11-18T10:19:03.383Z,77.34
2022-11-18T10:20:03.370Z,77.00
2022-11-18T10:21:03.358Z,79.40
2022-11-18T10:22:03.346Z,77.17
2022-11-18T10:23:03.362Z,76.89
2022-11-18T10:24:03.321Z,75.95
2022-11-18T10:25:03.309Z,74.84
2022-11-18T10:27:03.284Z,74.84
2022-11-18T10:28:03.270Z,76.90
2022-11-18T10:29:03.260Z,77.71
2022-11-18T10:30:03.245Z,77.51
2022-11-18T10:31:03.233Z,75.92
2022-11-18T10:32:04.223Z,76.00
2022-11-18T10:33:03.208Z,80.10
2022-11-18T10:34:03.195Z,80.98
2022-11-18T10:35:03.182Z,81.42
2022-11-18T10:36:03.168Z,82.03
2022-11-18T10:38:08.265Z,82.02
2022-11-18T10:39:03.159Z,80.26
2022-11-18T10:40:03.119Z,80.40
2022-11-18T10:41:03.106Z,79.66
2022-11-18T10:42:03.118Z,81.93
2022-11-18T10:43:03.083Z,81.46
2022-11-18T10:44:05.823Z,83.53
2022-11-18T10:45:05.055Z,84.66
2022-11-18T10:46:03.040Z,86.18
2022-11-18T10:47:03.028Z,83.94
2022-11-18T10:49:03.004Z,84.08
2022-11-18T10:50:02.989Z,84.49
2022-11-18T10:51:02.978Z,85.61
2022-11-18T10:52:02.965Z,85.75
2022-11-18T10:53:02.952Z,85.85
2022-11-18T10:54:02.939Z,87.48
2022-11-18T10:55:03.068Z,87.07
2022-11-18T10:56:02.911Z,88.09
2022-11-18T10:57:02.901Z,86.67
2022-11-18T10:58:02.887Z,87.38
2022-11-18T11:00:03.008Z,86.20
2022-11-18T11:01:02.848Z,87.83
2022-11-18T11:02:08.342Z,88.09
2022-11-18T11:03:04.826Z,87.38
2022-11-18T11:04:02.807Z,85.75
2022-11-18T11:05:02.805Z,85.65
2022-11-18T11:06:02.784Z,84.74
2022-11-18T11:07:02.807Z,86.57
2022-11-18T11:08:29.055Z,86.12
2022-11-18T11:09:02.748Z,85.27
2022-11-18T11:11:02.743Z,84.04
2022-11-18T11:12:02.706Z,84.72
2022-11-18T11:13:02.692Z,83.94
2022-11-18T11:14:02.679Z,83.03
2022-11-18T11:15:02.678Z,82.72
2022-11-18T11:16:02.653Z,81.87
2022-11-18T11:17:02.724Z,80.65
2022-11-18T11:18:02.628Z,81.87
2022-11-18T11:19:02.614Z,80.95
2022-11-18T11:20:02.611Z,81.42
2022-11-18T11:22:02.578Z,81.10
2022-11-18T11:23:02.560Z,76.66
2022-11-18T11:24:02.552Z,73.01
2022-11-18T11:25:02.536Z,70.28
2022-11-18T11:28:19.979Z,73.25
2022-11-18T11:29:04.484Z,73.73
2022-11-18T11:30:02.473Z,76.13
2022-11-18T11:31:02.459Z,76.37
2022-11-18T11:33:02.433Z,80.14
2022-11-18T11:34:02.420Z,81.93
2022-11-18T11:35:02.409Z,79.63
2022-11-18T11:36:02.394Z,80.92
2022-11-18T11:37:02.380Z,79.32
2022-11-18T11:38:02.370Z,79.77
2022-11-18T11:39:04.851Z,79.64
2022-11-18T11:40:02.344Z,80.96
2022-11-18T11:41:02.327Z,80.96
2022-11-18T11:42:02.316Z,81.10
2022-11-18T11:44:02.291Z,82.43
2022-11-18T11:45:02.279Z,82.29
2022-11-18T11:46:02.264Z,79.55
2022-11-18T11:47:02.250Z,77.59
2022-11-18T11:48:02.244Z,77.08
2022-11-18T11:49:02.229Z,75.79
2022-11-18T11:50:02.216Z,73.76
2022-11-18T11:51:04.733Z,72.47
2022-11-18T11:52:02.188Z,70.92
2022-11-18T11:53:02.180Z,69.84
2022-11-18T11:55:02.150Z,68.76
2022-11-18T11:56:02.136Z,69.27
2022-11-18T11:57:02.123Z,69.07
2022-11-18T11:58:02.114Z,68.53
2022-11-18T11:59:02.120Z,67.72
2022-11-18T12:00:02.089Z,69.07
2022-11-18T12:01:02.073Z,70.08
2022-11-18T12:02:02.061Z,70.72
2022-11-18T12:03:02.136Z,72.58
2022-11-18T12:04:02.036Z,71.83
2022-11-18T12:06:02.011Z,74.40
2022-11-18T12:07:02.040Z,75.05
2022-11-18T12:08:01.987Z,74.00
2022-11-18T12:09:01.972Z,72.91
2022-11-18T12:10:01.965Z,72.34
2022-11-18T12:11:01.948Z,70.82
2022-11-18T12:12:01.937Z,68.96
2022-11-18T12:13:01.920Z,67.96
2022-11-18T12:14:01.909Z,66.65
2022-11-18T12:15:01.922Z,64.39
2022-11-18T12:17:01.880Z,63.00
2022-11-18T12:18:01.864Z,61.25
2022-11-18T12:19:01.847Z,60.55
2022-11-18T12:20:01.837Z,61.11
2022-11-18T12:21:01.822Z,61.97
2022-11-18T12:22:01.812Z,62.35
2022-11-18T12:23:01.797Z,61.61
2022-11-18T12:24:01.789Z,60.47
2022-11-18T12:25:01.779Z,60.04
2022-11-18T12:26:01.766Z,59.99
2022-11-18T12:28:01.740Z,60.37
2022-11-18T12:29:01.725Z,61.92
2022-11-18T12:30:01.745Z,60.57
2022-11-18T12:31:01.802Z,61.08
2022-11-18T12:32:01.689Z,61.57
2022-11-18T12:33:01.677Z,66.07
2022-11-18T12:34:01.666Z,67.91
2022-11-18T12:35:01.652Z,71.09
2022-11-18T12:36:01.641Z,72.78
2022-11-18T12:37:01.625Z,74.07
2022-11-18T12:39:01.603Z,75.77
2022-11-18T12:40:01.595Z,76.59
2022-11-18T12:41:01.573Z,77.20
2022-11-18T12:42:01.563Z,77.30
2022-11-18T12:43:01.549Z,78.35
2022-11-18T12:44:01.542Z,77.70
2022-11-18T12:45:01.524Z,77.33
2022-11-18T12:46:01.513Z,78.11
2022-11-18T12:47:01.520Z,77.64
2022-11-18T12:48:01.486Z,77.74
2022-11-18T12:50:01.465Z,77.47
2022-11-18T12:51:01.447Z,74.82
2022-11-18T12:52:01.438Z,73.26
2022-11-18T12:53:01.421Z,70.65
2022-11-18T12:54:01.413Z,67.41
2022-11-18T12:55:01.399Z,65.89
2022-11-18T12:56:01.384Z,67.95
2022-11-18T12:57:01.370Z,70.28
2022-11-18T12:58:01.375Z,71.42
2022-11-18T12:59:01.342Z,72.27
2022-11-18T13:01:01.375Z,70.78
2022-11-18T13:02:01.305Z,67.55
2022-11-18T13:03:01.357Z,66.20
2022-11-18T13:04:01.280Z,65.66
2022-11-18T13:05:01.264Z,64.48
2022-11-18T13:06:01.252Z,65.05
2022-11-18T13:07:01.317Z,64.65
2022-11-18T13:08:01.227Z,63.98
2022-11-18T13:09:01.212Z,62.84
2022-11-18T13:10:01.200Z,61.80
2022-11-18T13:12:01.252Z,61.67
2022-11-18T13:13:01.163Z,61.57
2022-11-18T13:14:01.149Z,60.96
2022-11-18T13:15:01.135Z,61.37
2022-11-18T13:16:01.126Z,60.23
2022-11-18T13:17:01.108Z,60.10
2022-11-18T13:18:01.099Z,59.83
2022-11-18T13:19:01.130Z,59.93
2022-11-18T13:20:01.075Z,60.66
2022-11-18T13:21:01.060Z,60.07
2022-11-18T13:23:01.035Z,57.87
2022-11-18T13:24:01.151Z,56.26
2022-11-18T13:25:01.014Z,58.06
2022-11-18T13:26:01.001Z,57.92
2022-11-18T13:27:00.988Z,58.46
2022-11-18T13:28:00.975Z,59.89
2022-11-18T13:29:00.960Z,60.26
2022-11-18T13:30:00.949Z,62.26
2022-11-18T13:31:00.935Z,63.64
2022-11-18T13:32:00.926Z,64.28
2022-11-18T13:34:00.897Z,64.10
2022-11-18T13:35:00.909Z,63.97
2022-11-18T13:36:00.873Z,62.02
2022-11-18T13:37:00.859Z,62.25
2022-11-18T13:38:00.846Z,62.62
2022-11-18T13:39:00.834Z,62.83
2022-11-18T13:40:00.821Z,63.16
2022-11-18T13:41:00.808Z,63.74
2022-11-18T13:42:00.799Z,64.57
2022-11-18T13:43:00.784Z,65.48
2022-11-18T13:45:00.757Z,66.08
2022-11-18T13:46:00.745Z,66.35
2022-11-18T13:47:00.733Z,64.80
2022-11-18T13:48:00.720Z,64.03
2022-11-18T13:49:00.707Z,62.65
2022-11-18T13:50:00.694Z,61.28
2022-11-18T13:51:00.707Z,60.91
2022-11-18T13:52:00.670Z,60.88
2022-11-18T13:53:00.656Z,61.21
2022-11-18T13:54:00.645Z,62.61
2022-11-18T13:56:00.624Z,64.83
2022-11-18T13:57:00.606Z,65.47
2022-11-18T13:58:00.595Z,66.85
2022-11-18T13:59:17.784Z,67.66
2022-11-18T14:00:02.569Z,67.54
2022-11-18T14:01:00.630Z,65.91
2022-11-18T14:02:00.546Z,67.36
2022-11-18T14:03:00.529Z,68.10
2022-11-18T14:04:00.520Z,68.85
2022-11-18T14:05:00.503Z,69.29
2022-11-18T14:07:00.577Z,70.64
2022-11-18T14:08:00.473Z,71.08
2022-11-18T14:09:00.451Z,72.00
2022-11-18T14:10:00.438Z,72.65
2022-11-18T14:11:00.423Z,72.85
2022-11-18T14:12:00.415Z,73.05
2022-11-18T14:13:00.398Z,72.95